sensor_id;sensor_type;location;lat;lon;timestamp;P1;durP1;ratioP1;P2;durP2;ratioP2
68944;SDS011;55984;48.790;8.990;2022-11-15T00:00:47;5.63;;;3.47;;
68944;SDS011;55984;48.790;8.990;2022-11-15T00:03:13;7.53;;;3.60;;
68944;SDS011;55984;48.790;8.990;2022-11-15T00:05:42;6.07;;;4.20;;
68944;SDS011;55984;48.790;8.990;2022-11-15T00:08:08;6.80;;;3.60;;
68944;SDS011;55984;48.790;8.990;2022-11-15T00:10:34;8.00;;;4.07;;
68944;SDS011;55984;48.790;8.990;2022-11-15T00:13:00;5.50;;;3.70;;
68944;SDS011;55984;48.790;8.990;2022-11-15T00:15:28;6.53;;;3.93;;
68944;SDS011;55984;48.790;8.990;2022-11-15T00:17:54;10.83;;;4.40;;
68944;SDS011;55984;48.790;8.990;2022-11-15T00:20:19;7.20;;;4.00;;
68944;SDS011;55984;48.790;8.990;2022-11-15T00:22:45;7.27;;;3.57;;
68944;SDS011;55984;48.790;8.990;2022-11-15T00:25:10;8.10;;;4.20;;
68944;SDS011;55984;48.790;8.990;2022-11-15T00:27:35;5.50;;;3.67;;
68944;SDS011;55984;48.790;8.990;2022-11-15T00:30:01;11.20;;;3.90;;
68944;SDS011;55984;48.790;8.990;2022-11-15T00:32:26;6.70;;;3.70;;
68944;SDS011;55984;48.790;8.990;2022-11-15T00:34:57;7.60;;;3.90;;
68944;SDS011;55984;48.790;8.990;2022-11-15T00:37:22;6.40;;;3.83;;
68944;SDS011;55984;48.790;8.990;2022-11-15T00:39:47;6.70;;;4.03;;
68944;SDS011;55984;48.790;8.990;2022-11-15T00:42:13;5.87;;;3.77;;
68944;SDS011;55984;48.790;8.990;2022-11-15T00:44:38;9.90;;;4.40;;
68944;SDS011;55984;48.790;8.990;2022-11-15T00:47:04;8.10;;;3.70;;
68944;SDS011;55984;48.790;8.990;2022-11-15T00:49:29;8.83;;;4.20;;
68944;SDS011;55984;48.790;8.990;2022-11-15T00:51:58;8.70;;;3.60;;
68944;SDS011;55984;48.790;8.990;2022-11-15T00:54:23;8.50;;;3.90;;
68944;SDS011;55984;48.790;8.990;2022-11-15T00:56:49;10.57;;;4.17;;
68944;SDS011;55984;48.790;8.990;2022-11-15T00:59:14;6.20;;;3.60;;
68944;SDS011;55984;48.790;8.990;2022-11-15T01:01:39;8.13;;;4.10;;
68944;SDS011;55984;48.790;8.990;2022-11-15T01:04:05;7.00;;;3.60;;
68944;SDS011;55984;48.790;8.990;2022-11-15T01:06:31;8.67;;;4.13;;
68944;SDS011;55984;48.790;8.990;2022-11-15T01:08:56;8.70;;;3.80;;
68944;SDS011;55984;48.790;8.990;2022-11-15T01:11:21;8.23;;;3.70;;
68944;SDS011;55984;48.790;8.990;2022-11-15T01:13:47;8.50;;;4.30;;
68944;SDS011;55984;48.790;8.990;2022-11-15T01:16:14;7.90;;;4.17;;
68944;SDS011;55984;48.790;8.990;2022-11-15T01:18:42;9.70;;;4.57;;
68944;SDS011;55984;48.790;8.990;2022-11-15T01:23:41;8.70;;;4.10;;
68944;SDS011;55984;48.790;8.990;2022-11-15T01:26:09;10.40;;;3.60;;
68944;SDS011;55984;48.790;8.990;2022-11-15T01:28:37;7.40;;;4.10;;
68944;SDS011;55984;48.790;8.990;2022-11-15T01:31:05;7.83;;;3.53;;
68944;SDS011;55984;48.790;8.990;2022-11-15T01:33:34;8.37;;;3.80;;
68944;SDS011;55984;48.790;8.990;2022-11-15T01:36:09;6.43;;;4.00;;
68944;SDS011;55984;48.790;8.990;2022-11-15T01:38:36;6.73;;;4.50;;
68944;SDS011;55984;48.790;8.990;2022-11-15T01:41:02;9.47;;;4.20;;
68944;SDS011;55984;48.790;8.990;2022-11-15T01:43:32;7.50;;;3.90;;
68944;SDS011;55984;48.790;8.990;2022-11-15T01:46:19;6.20;;;3.90;;
68944;SDS011;55984;48.790;8.990;2022-11-15T01:48:54;10.93;;;4.03;;
68944;SDS011;55984;48.790;8.990;2022-11-15T01:51:28;8.07;;;4.47;;
68944;SDS011;55984;48.790;8.990;2022-11-15T01:53:59;10.03;;;4.33;;
68944;SDS011;55984;48.790;8.990;2022-11-15T01:56:30;8.57;;;4.33;;
68944;SDS011;55984;48.790;8.990;2022-11-15T02:01:48;7.47;;;4.17;;
68944;SDS011;55984;48.790;8.990;2022-11-15T02:04:16;11.03;;;4.80;;
68944;SDS011;55984;48.790;8.990;2022-11-15T02:06:46;7.10;;;4.00;;
68944;SDS011;55984;48.790;8.990;2022-11-15T02:09:14;6.77;;;4.27;;
68944;SDS011;55984;48.790;8.990;2022-11-15T02:11:40;7.87;;;4.37;;
68944;SDS011;55984;48.790;8.990;2022-11-15T02:14:10;6.50;;;4.07;;
68944;SDS011;55984;48.790;8.990;2022-11-15T02:33:04;8.40;;;4.03;;
68944;SDS011;55984;48.790;8.990;2022-11-15T02:40:59;7.97;;;4.57;;
68944;SDS011;55984;48.790;8.990;2022-11-15T02:43:29;6.23;;;4.10;;
68944;SDS011;55984;48.790;8.990;2022-11-15T02:46:28;5.73;;;3.67;;
68944;SDS011;55984;48.790;8.990;2022-11-15T02:49:20;5.87;;;3.77;;
68944;SDS011;55984;48.790;8.990;2022-11-15T02:51:47;5.83;;;3.70;;
68944;SDS011;55984;48.790;8.990;2022-11-15T02:54:20;6.60;;;3.57;;
68944;SDS011;55984;48.790;8.990;2022-11-15T02:56:48;7.33;;;3.77;;
68944;SDS011;55984;48.790;8.990;2022-11-15T03:10:51;8.07;;;4.10;;
68944;SDS011;55984;48.790;8.990;2022-11-15T03:18:48;7.83;;;3.53;;
68944;SDS011;55984;48.790;8.990;2022-11-15T03:21:18;6.50;;;3.23;;
68944;SDS011;55984;48.790;8.990;2022-11-15T03:24:00;4.60;;;3.27;;
68944;SDS011;55984;48.790;8.990;2022-11-15T03:26:29;6.93;;;3.33;;
68944;SDS011;55984;48.790;8.990;2022-11-15T03:28:56;5.77;;;3.10;;
68944;SDS011;55984;48.790;8.990;2022-11-15T03:31:29;7.77;;;3.30;;
68944;SDS011;55984;48.790;8.990;2022-11-15T03:34:25;8.53;;;3.90;;
68944;SDS011;55984;48.790;8.990;2022-11-15T03:36:55;9.23;;;4.37;;
68944;SDS011;55984;48.790;8.990;2022-11-15T03:39:21;9.07;;;4.50;;
68944;SDS011;55984;48.790;8.990;2022-11-15T03:41:49;6.73;;;4.20;;
68944;SDS011;55984;48.790;8.990;2022-11-15T03:44:36;8.77;;;4.40;;
68944;SDS011;55984;48.790;8.990;2022-11-15T03:47:21;9.30;;;4.23;;
68944;SDS011;55984;48.790;8.990;2022-11-15T03:49:53;14.30;;;8.30;;
68944;SDS011;55984;48.790;8.990;2022-11-15T03:52:30;20.33;;;9.23;;
68944;SDS011;55984;48.790;8.990;2022-11-15T03:54:59;19.40;;;8.60;;
68944;SDS011;55984;48.790;8.990;2022-11-15T03:57:27;13.27;;;6.60;;
68944;SDS011;55984;48.790;8.990;2022-11-15T03:59:53;11.87;;;6.67;;
68944;SDS011;55984;48.790;8.990;2022-11-15T04:02:18;10.27;;;5.30;;
68944;SDS011;55984;48.790;8.990;2022-11-15T04:04:44;9.77;;;4.60;;
68944;SDS011;55984;48.790;8.990;2022-11-15T04:07:13;7.07;;;4.07;;
68944;SDS011;55984;48.790;8.990;2022-11-15T04:09:40;10.57;;;4.70;;
68944;SDS011;55984;48.790;8.990;2022-11-15T04:12:24;7.10;;;4.00;;
68944;SDS011;55984;48.790;8.990;2022-11-15T04:20:17;8.50;;;3.83;;
68944;SDS011;55984;48.790;8.990;2022-11-15T04:23:04;7.27;;;4.10;;
68944;SDS011;55984;48.790;8.990;2022-11-15T04:26:14;6.90;;;4.10;;
68944;SDS011;55984;48.790;8.990;2022-11-15T04:28:45;6.50;;;4.10;;
68944;SDS011;55984;48.790;8.990;2022-11-15T04:31:31;6.77;;;4.20;;
68944;SDS011;55984;48.790;8.990;2022-11-15T04:33:56;8.53;;;4.33;;
68944;SDS011;55984;48.790;8.990;2022-11-15T04:36:22;9.77;;;4.30;;
68944;SDS011;55984;48.790;8.990;2022-11-15T04:39:07;7.97;;;4.53;;
68944;SDS011;55984;48.790;8.990;2022-11-15T04:41:32;6.57;;;4.30;;
68944;SDS011;55984;48.790;8.990;2022-11-15T04:43:58;7.47;;;4.90;;
68944;SDS011;55984;48.790;8.990;2022-11-15T04:46:24;9.57;;;5.00;;
68944;SDS011;55984;48.790;8.990;2022-11-15T04:48:50;13.17;;;5.67;;
68944;SDS011;55984;48.790;8.990;2022-11-15T04:51:16;11.73;;;5.77;;
68944;SDS011;55984;48.790;8.990;2022-11-15T04:53:42;13.53;;;7.87;;
68944;SDS011;55984;48.790;8.990;2022-11-15T04:56:08;13.03;;;7.53;;
68944;SDS011;55984;48.790;8.990;2022-11-15T04:58:33;8.67;;;5.27;;
68944;SDS011;55984;48.790;8.990;2022-11-15T05:01:12;9.10;;;5.37;;
68944;SDS011;55984;48.790;8.990;2022-11-15T05:03:40;8.23;;;4.80;;
68944;SDS011;55984;48.790;8.990;2022-11-15T05:06:24;8.90;;;5.13;;
68944;SDS011;55984;48.790;8.990;2022-11-15T05:08:50;8.70;;;5.20;;
68944;SDS011;55984;48.790;8.990;2022-11-15T05:11:16;10.70;;;5.80;;
68944;SDS011;55984;48.790;8.990;2022-11-15T05:13:42;11.67;;;6.70;;
68944;SDS011;55984;48.790;8.990;2022-11-15T05:16:07;10.67;;;5.37;;
68944;SDS011;55984;48.790;8.990;2022-11-15T05:18:32;11.70;;;6.00;;
68944;SDS011;55984;48.790;8.990;2022-11-15T05:21:08;9.07;;;5.60;;
68944;SDS011;55984;48.790;8.990;2022-11-15T05:23:35;10.37;;;5.77;;
68944;SDS011;55984;48.790;8.990;2022-11-15T05:26:01;11.77;;;5.63;;
68944;SDS011;55984;48.790;8.990;2022-11-15T05:28:28;10.20;;;5.43;;
68944;SDS011;55984;48.790;8.990;2022-11-15T05:31:00;8.53;;;5.00;;
68944;SDS011;55984;48.790;8.990;2022-11-15T05:33:26;9.50;;;5.70;;
68944;SDS011;55984;48.790;8.990;2022-11-15T05:35:54;10.30;;;5.90;;
68944;SDS011;55984;48.790;8.990;2022-11-15T05:38:27;10.37;;;6.07;;
68944;SDS011;55984;48.790;8.990;2022-11-15T05:40:53;11.93;;;7.43;;
68944;SDS011;55984;48.790;8.990;2022-11-15T05:43:19;12.67;;;7.40;;
68944;SDS011;55984;48.790;8.990;2022-11-15T05:45:45;10.17;;;5.90;;
68944;SDS011;55984;48.790;8.990;2022-11-15T05:48:10;7.67;;;4.40;;
68944;SDS011;55984;48.790;8.990;2022-11-15T05:50:38;8.00;;;4.60;;
68944;SDS011;55984;48.790;8.990;2022-11-15T05:53:04;9.43;;;4.90;;
68944;SDS011;55984;48.790;8.990;2022-11-15T05:55:31;6.57;;;4.70;;
68944;SDS011;55984;48.790;8.990;2022-11-15T05:57:57;9.60;;;5.20;;
68944;SDS011;55984;48.790;8.990;2022-11-15T06:00:22;8.03;;;3.93;;
68944;SDS011;55984;48.790;8.990;2022-11-15T06:02:50;7.93;;;3.50;;
68944;SDS011;55984;48.790;8.990;2022-11-15T06:05:15;6.63;;;3.53;;
68944;SDS011;55984;48.790;8.990;2022-11-15T06:07:41;6.60;;;3.47;;
68944;SDS011;55984;48.790;8.990;2022-11-15T06:10:07;8.10;;;3.40;;
68944;SDS011;55984;48.790;8.990;2022-11-15T06:12:33;4.63;;;3.30;;
68944;SDS011;55984;48.790;8.990;2022-11-15T06:14:58;5.43;;;3.57;;
68944;SDS011;55984;48.790;8.990;2022-11-15T06:17:24;8.93;;;4.00;;
68944;SDS011;55984;48.790;8.990;2022-11-15T06:19:49;6.60;;;3.60;;
68944;SDS011;55984;48.790;8.990;2022-11-15T06:22:15;6.70;;;3.50;;
68944;SDS011;55984;48.790;8.990;2022-11-15T06:24:48;6.77;;;3.33;;
68944;SDS011;55984;48.790;8.990;2022-11-15T06:27:13;5.23;;;3.30;;
68944;SDS011;55984;48.790;8.990;2022-11-15T06:29:39;6.90;;;3.63;;
68944;SDS011;55984;48.790;8.990;2022-11-15T06:32:05;14.23;;;3.50;;
68944;SDS011;55984;48.790;8.990;2022-11-15T06:34:30;5.60;;;3.17;;
68944;SDS011;55984;48.790;8.990;2022-11-15T06:36:56;6.50;;;3.30;;
68944;SDS011;55984;48.790;8.990;2022-11-15T06:39:22;8.20;;;3.37;;
68944;SDS011;55984;48.790;8.990;2022-11-15T06:41:54;4.57;;;3.27;;
68944;SDS011;55984;48.790;8.990;2022-11-15T06:44:19;7.87;;;3.30;;
68944;SDS011;55984;48.790;8.990;2022-11-15T06:46:45;7.40;;;3.03;;
68944;SDS011;55984;48.790;8.990;2022-11-15T06:49:10;7.70;;;3.57;;
68944;SDS011;55984;48.790;8.990;2022-11-15T06:51:36;6.10;;;3.10;;
68944;SDS011;55984;48.790;8.990;2022-11-15T06:54:02;4.50;;;3.00;;
68944;SDS011;55984;48.790;8.990;2022-11-15T06:56:27;7.37;;;3.20;;
68944;SDS011;55984;48.790;8.990;2022-11-15T06:58:53;5.63;;;3.17;;
68944;SDS011;55984;48.790;8.990;2022-11-15T07:01:19;6.97;;;4.00;;
68944;SDS011;55984;48.790;8.990;2022-11-15T07:03:44;8.63;;;4.43;;
68944;SDS011;55984;48.790;8.990;2022-11-15T07:06:11;4.83;;;3.30;;
68944;SDS011;55984;48.790;8.990;2022-11-15T07:08:36;9.13;;;3.63;;
68944;SDS011;55984;48.790;8.990;2022-11-15T07:11:04;9.13;;;3.77;;
68944;SDS011;55984;48.790;8.990;2022-11-15T07:13:31;6.23;;;3.80;;
68944;SDS011;55984;48.790;8.990;2022-11-15T07:16:01;9.67;;;3.97;;
68944;SDS011;55984;48.790;8.990;2022-11-15T07:18:28;7.37;;;3.90;;
68944;SDS011;55984;48.790;8.990;2022-11-15T07:20:53;9.63;;;3.73;;
68944;SDS011;55984;48.790;8.990;2022-11-15T07:23:19;6.30;;;3.70;;
68944;SDS011;55984;48.790;8.990;2022-11-15T07:25:45;8.40;;;3.87;;
68944;SDS011;55984;48.790;8.990;2022-11-15T07:28:10;7.20;;;4.13;;
68944;SDS011;55984;48.790;8.990;2022-11-15T07:30:36;7.47;;;3.73;;
68944;SDS011;55984;48.790;8.990;2022-11-15T07:33:01;5.70;;;3.43;;
68944;SDS011;55984;48.790;8.990;2022-11-15T07:35:27;13.03;;;3.57;;
68944;SDS011;55984;48.790;8.990;2022-11-15T07:37:57;7.90;;;3.03;;
68944;SDS011;55984;48.790;8.990;2022-11-15T07:40:30;11.17;;;4.00;;
68944;SDS011;55984;48.790;8.990;2022-11-15T07:43:07;12.70;;;4.50;;
68944;SDS011;55984;48.790;8.990;2022-11-15T07:45:33;12.30;;;4.10;;
68944;SDS011;55984;48.790;8.990;2022-11-15T07:47:59;12.90;;;4.40;;
68944;SDS011;55984;48.790;8.990;2022-11-15T07:50:25;7.33;;;4.23;;
68944;SDS011;55984;48.790;8.990;2022-11-15T07:52:55;8.90;;;4.73;;
68944;SDS011;55984;48.790;8.990;2022-11-15T07:55:26;7.83;;;4.67;;
68944;SDS011;55984;48.790;8.990;2022-11-15T07:57:59;10.37;;;4.53;;
68944;SDS011;55984;48.790;8.990;2022-11-15T08:00:29;11.07;;;4.43;;
68944;SDS011;55984;48.790;8.990;2022-11-15T08:03:01;15.70;;;5.47;;
68944;SDS011;55984;48.790;8.990;2022-11-15T08:05:35;8.50;;;4.80;;
68944;SDS011;55984;48.790;8.990;2022-11-15T08:08:01;16.73;;;6.53;;
68944;SDS011;55984;48.790;8.990;2022-11-15T08:10:27;11.00;;;5.17;;
68944;SDS011;55984;48.790;8.990;2022-11-15T08:12:57;14.00;;;5.17;;
68944;SDS011;55984;48.790;8.990;2022-11-15T08:15:24;9.07;;;4.20;;
68944;SDS011;55984;48.790;8.990;2022-11-15T08:18:00;7.20;;;4.60;;
68944;SDS011;55984;48.790;8.990;2022-11-15T08:20:30;8.57;;;4.90;;
68944;SDS011;55984;48.790;8.990;2022-11-15T08:23:00;6.77;;;3.97;;
68944;SDS011;55984;48.790;8.990;2022-11-15T08:25:33;8.37;;;4.20;;
68944;SDS011;55984;48.790;8.990;2022-11-15T08:28:01;6.40;;;3.97;;
68944;SDS011;55984;48.790;8.990;2022-11-15T08:30:29;7.50;;;4.33;;
68944;SDS011;55984;48.790;8.990;2022-11-15T08:32:57;7.67;;;4.10;;
68944;SDS011;55984;48.790;8.990;2022-11-15T08:35:24;11.40;;;4.27;;
68944;SDS011;55984;48.790;8.990;2022-11-15T08:37:50;10.13;;;4.40;;
68944;SDS011;55984;48.790;8.990;2022-11-15T08:40:18;6.73;;;3.97;;
68944;SDS011;55984;48.790;8.990;2022-11-15T08:42:45;7.60;;;3.97;;
68944;SDS011;55984;48.790;8.990;2022-11-15T08:45:11;6.23;;;3.30;;
68944;SDS011;55984;48.790;8.990;2022-11-15T08:47:39;4.00;;;3.03;;
68944;SDS011;55984;48.790;8.990;2022-11-15T08:50:05;5.43;;;3.17;;
68944;SDS011;55984;48.790;8.990;2022-11-15T08:52:31;5.27;;;2.90;;
68944;SDS011;55984;48.790;8.990;2022-11-15T08:54:57;5.70;;;3.07;;
68944;SDS011;55984;48.790;8.990;2022-11-15T08:57:23;7.77;;;3.07;;
68944;SDS011;55984;48.790;8.990;2022-11-15T08:59:48;11.00;;;3.60;;
68944;SDS011;55984;48.790;8.990;2022-11-15T09:02:15;8.83;;;3.17;;
68944;SDS011;55984;48.790;8.990;2022-11-15T09:04:41;4.90;;;3.23;;
68944;SDS011;55984;48.790;8.990;2022-11-15T09:07:08;5.00;;;3.20;;
68944;SDS011;55984;48.790;8.990;2022-11-15T09:09:34;5.80;;;3.20;;
68944;SDS011;55984;48.790;8.990;2022-11-15T09:11:59;6.90;;;3.70;;
68944;SDS011;55984;48.790;8.990;2022-11-15T09:14:25;11.20;;;3.50;;
68944;SDS011;55984;48.790;8.990;2022-11-15T09:16:58;5.83;;;3.53;;
68944;SDS011;55984;48.790;8.990;2022-11-15T09:19:23;8.33;;;3.47;;
68944;SDS011;55984;48.790;8.990;2022-11-15T09:21:53;7.87;;;3.73;;
68944;SDS011;55984;48.790;8.990;2022-11-15T09:24:19;9.33;;;3.77;;
68944;SDS011;55984;48.790;8.990;2022-11-15T09:26:45;8.07;;;3.80;;
68944;SDS011;55984;48.790;8.990;2022-11-15T09:29:12;5.50;;;3.53;;
68944;SDS011;55984;48.790;8.990;2022-11-15T09:31:38;6.83;;;3.80;;
68944;SDS011;55984;48.790;8.990;2022-11-15T09:34:03;9.33;;;4.10;;
68944;SDS011;55984;48.790;8.990;2022-11-15T09:36:30;6.97;;;3.07;;
68944;SDS011;55984;48.790;8.990;2022-11-15T09:38:57;6.80;;;3.33;;
68944;SDS011;55984;48.790;8.990;2022-11-15T09:47:41;5.93;;;3.07;;
68944;SDS011;55984;48.790;8.990;2022-11-15T09:53:15;7.87;;;3.40;;
68944;SDS011;55984;48.790;8.990;2022-11-15T09:56:04;5.30;;;3.20;;
68944;SDS011;55984;48.790;8.990;2022-11-15T10:02:22;7.43;;;3.37;;
68944;SDS011;55984;48.790;8.990;2022-11-15T10:04:23;4.80;;;3.20;;
68944;SDS011;55984;48.790;8.990;2022-11-15T10:06:55;4.60;;;3.20;;
68944;SDS011;55984;48.790;8.990;2022-11-15T10:09:36;6.43;;;3.67;;
68944;SDS011;55984;48.790;8.990;2022-11-15T10:12:08;5.23;;;3.03;;
68944;SDS011;55984;48.790;8.990;2022-11-15T10:14:35;4.90;;;3.20;;
68944;SDS011;55984;48.790;8.990;2022-11-15T10:24:52;6.43;;;3.53;;
68944;SDS011;55984;48.790;8.990;2022-11-15T10:27:42;5.03;;;3.17;;
68944;SDS011;55984;48.790;8.990;2022-11-15T10:30:11;7.37;;;2.97;;
68944;SDS011;55984;48.790;8.990;2022-11-15T10:32:39;8.03;;;3.30;;
68944;SDS011;55984;48.790;8.990;2022-11-15T10:35:22;11.23;;;3.30;;
68944;SDS011;55984;48.790;8.990;2022-11-15T10:38:06;4.90;;;3.30;;
68944;SDS011;55984;48.790;8.990;2022-11-15T10:40:34;5.07;;;3.00;;
68944;SDS011;55984;48.790;8.990;2022-11-15T10:43:17;5.17;;;2.90;;
68944;SDS011;55984;48.790;8.990;2022-11-15T10:45:43;4.73;;;3.20;;
68944;SDS011;55984;48.790;8.990;2022-11-15T10:50:42;9.73;;;3.60;;
68944;SDS011;55984;48.790;8.990;2022-11-15T10:55:53;6.63;;;3.03;;
68944;SDS011;55984;48.790;8.990;2022-11-15T11:01:29;6.13;;;3.00;;
68944;SDS011;55984;48.790;8.990;2022-11-15T11:04:01;7.10;;;3.10;;
68944;SDS011;55984;48.790;8.990;2022-11-15T11:06:27;4.30;;;2.33;;
68944;SDS011;55984;48.790;8.990;2022-11-15T11:08:59;5.13;;;2.70;;
68944;SDS011;55984;48.790;8.990;2022-11-15T11:14:21;6.43;;;2.83;;
68944;SDS011;55984;48.790;8.990;2022-11-15T11:16:56;6.33;;;3.03;;
68944;SDS011;55984;48.790;8.990;2022-11-15T11:33:32;5.83;;;2.97;;
68944;SDS011;55984;48.790;8.990;2022-11-15T11:44:36;9.37;;;3.20;;
68944;SDS011;55984;48.790;8.990;2022-11-15T11:47:20;10.00;;;3.00;;
68944;SDS011;55984;48.790;8.990;2022-11-15T11:49:59;3.70;;;2.60;;
68944;SDS011;55984;48.790;8.990;2022-11-15T11:58:17;5.30;;;2.60;;
68944;SDS011;55984;48.790;8.990;2022-11-15T12:00:49;5.93;;;2.90;;
68944;SDS011;55984;48.790;8.990;2022-11-15T12:03:38;3.97;;;2.70;;
68944;SDS011;55984;48.790;8.990;2022-11-15T12:06:20;4.37;;;2.73;;
68944;SDS011;55984;48.790;8.990;2022-11-15T12:08:53;8.17;;;2.80;;
68944;SDS011;55984;48.790;8.990;2022-11-15T12:14:11;7.60;;;2.60;;
68944;SDS011;55984;48.790;8.990;2022-11-15T12:16:43;6.13;;;2.53;;
68944;SDS011;55984;48.790;8.990;2022-11-15T12:19:10;3.20;;;2.40;;
68944;SDS011;55984;48.790;8.990;2022-11-15T12:21:41;6.40;;;2.40;;
68944;SDS011;55984;48.790;8.990;2022-11-15T12:24:11;5.57;;;2.70;;
68944;SDS011;55984;48.790;8.990;2022-11-15T12:27:12;5.80;;;2.70;;
68944;SDS011;55984;48.790;8.990;2022-11-15T12:29:52;9.50;;;2.97;;
68944;SDS011;55984;48.790;8.990;2022-11-15T12:32:28;6.10;;;2.60;;
68944;SDS011;55984;48.790;8.990;2022-11-15T12:34:58;4.83;;;2.83;;
68944;SDS011;55984;48.790;8.990;2022-11-15T12:42:57;4.27;;;2.93;;
68944;SDS011;55984;48.790;8.990;2022-11-15T12:45:42;4.07;;;2.60;;
68944;SDS011;55984;48.790;8.990;2022-11-15T12:58:39;3.50;;;2.30;;
68944;SDS011;55984;48.790;8.990;2022-11-15T13:06:52;5.23;;;2.60;;
68944;SDS011;55984;48.790;8.990;2022-11-15T13:12:00;3.80;;;2.33;;
68944;SDS011;55984;48.790;8.990;2022-11-15T13:18:18;4.53;;;2.60;;
68944;SDS011;55984;48.790;8.990;2022-11-15T13:20:52;4.10;;;2.37;;
68944;SDS011;55984;48.790;8.990;2022-11-15T13:23:18;3.60;;;2.50;;
68944;SDS011;55984;48.790;8.990;2022-11-15T13:28:47;4.40;;;2.27;;
68944;SDS011;55984;48.790;8.990;2022-11-15T13:34:22;5.50;;;2.70;;
68944;SDS011;55984;48.790;8.990;2022-11-15T13:36:52;4.13;;;2.20;;
68944;SDS011;55984;48.790;8.990;2022-11-15T13:39:35;4.07;;;2.67;;
68944;SDS011;55984;48.790;8.990;2022-11-15T13:42:03;6.13;;;2.90;;
68944;SDS011;55984;48.790;8.990;2022-11-15T13:45:11;18.40;;;2.50;;
68944;SDS011;55984;48.790;8.990;2022-11-15T13:48:08;5.43;;;2.10;;
68944;SDS011;55984;48.790;8.990;2022-11-15T13:57:47;3.20;;;2.30;;
68944;SDS011;55984;48.790;8.990;2022-11-15T14:03:54;11.53;;;5.70;;
68944;SDS011;55984;48.790;8.990;2022-11-15T14:07:00;4.60;;;2.43;;
68944;SDS011;55984;48.790;8.990;2022-11-15T14:09:37;4.33;;;2.30;;
68944;SDS011;55984;48.790;8.990;2022-11-15T14:12:25;5.50;;;2.80;;
68944;SDS011;55984;48.790;8.990;2022-11-15T14:14:58;5.10;;;2.80;;
68944;SDS011;55984;48.790;8.990;2022-11-15T14:19:53;4.03;;;2.30;;
68944;SDS011;55984;48.790;8.990;2022-11-15T14:22:28;5.93;;;2.60;;
68944;SDS011;55984;48.790;8.990;2022-11-15T14:27:39;3.80;;;2.70;;
68944;SDS011;55984;48.790;8.990;2022-11-15T14:30:05;4.97;;;2.50;;
68944;SDS011;55984;48.790;8.990;2022-11-15T14:32:41;6.70;;;2.67;;
68944;SDS011;55984;48.790;8.990;2022-11-15T14:35:15;7.97;;;3.03;;
68944;SDS011;55984;48.790;8.990;2022-11-15T14:37:45;6.00;;;3.00;;
68944;SDS011;55984;48.790;8.990;2022-11-15T14:40:15;6.60;;;2.70;;
68944;SDS011;55984;48.790;8.990;2022-11-15T14:42:43;5.27;;;2.70;;
68944;SDS011;55984;48.790;8.990;2022-11-15T14:45:13;4.50;;;2.70;;
68944;SDS011;55984;48.790;8.990;2022-11-15T14:47:40;7.00;;;2.50;;
68944;SDS011;55984;48.790;8.990;2022-11-15T14:50:06;4.43;;;2.40;;
68944;SDS011;55984;48.790;8.990;2022-11-15T14:52:36;5.00;;;2.83;;
68944;SDS011;55984;48.790;8.990;2022-11-15T14:55:02;3.73;;;2.60;;
68944;SDS011;55984;48.790;8.990;2022-11-15T14:57:35;3.90;;;2.47;;
68944;SDS011;55984;48.790;8.990;2022-11-15T15:00:07;6.70;;;2.93;;
68944;SDS011;55984;48.790;8.990;2022-11-15T15:02:33;14.27;;;2.83;;
68944;SDS011;55984;48.790;8.990;2022-11-15T15:04:59;4.10;;;2.90;;
68944;SDS011;55984;48.790;8.990;2022-11-15T15:07:27;4.50;;;2.80;;
68944;SDS011;55984;48.790;8.990;2022-11-15T15:09:52;8.10;;;3.80;;
68944;SDS011;55984;48.790;8.990;2022-11-15T15:12:21;5.40;;;2.70;;
68944;SDS011;55984;48.790;8.990;2022-11-15T15:14:48;6.60;;;3.03;;
68944;SDS011;55984;48.790;8.990;2022-11-15T15:17:15;4.60;;;2.90;;
68944;SDS011;55984;48.790;8.990;2022-11-15T15:19:41;4.57;;;2.47;;
68944;SDS011;55984;48.790;8.990;2022-11-15T15:22:09;3.20;;;2.43;;
68944;SDS011;55984;48.790;8.990;2022-11-15T15:24:39;5.00;;;2.73;;
68944;SDS011;55984;48.790;8.990;2022-11-15T15:27:04;4.37;;;2.50;;
68944;SDS011;55984;48.790;8.990;2022-11-15T15:29:29;4.60;;;2.40;;
68944;SDS011;55984;48.790;8.990;2022-11-15T15:31:55;4.37;;;2.40;;
68944;SDS011;55984;48.790;8.990;2022-11-15T15:34:20;6.17;;;3.10;;
68944;SDS011;55984;48.790;8.990;2022-11-15T15:36:45;6.67;;;2.93;;
68944;SDS011;55984;48.790;8.990;2022-11-15T15:39:11;5.23;;;2.60;;
68944;SDS011;55984;48.790;8.990;2022-11-15T15:41:37;2.90;;;2.10;;
68944;SDS011;55984;48.790;8.990;2022-11-15T15:44:02;3.60;;;2.70;;
68944;SDS011;55984;48.790;8.990;2022-11-15T15:46:28;4.50;;;2.20;;
68944;SDS011;55984;48.790;8.990;2022-11-15T15:48:53;4.20;;;2.63;;
68944;SDS011;55984;48.790;8.990;2022-11-15T15:51:19;4.90;;;2.57;;
68944;SDS011;55984;48.790;8.990;2022-11-15T15:53:44;6.07;;;2.90;;
68944;SDS011;55984;48.790;8.990;2022-11-15T15:56:09;4.27;;;2.80;;
68944;SDS011;55984;48.790;8.990;2022-11-15T16:01:21;5.97;;;2.90;;
68944;SDS011;55984;48.790;8.990;2022-11-15T16:03:46;7.73;;;2.50;;
68944;SDS011;55984;48.790;8.990;2022-11-15T16:06:35;4.83;;;2.63;;
68944;SDS011;55984;48.790;8.990;2022-11-15T16:09:04;7.60;;;3.20;;
68944;SDS011;55984;48.790;8.990;2022-11-15T16:11:30;5.03;;;3.23;;
68944;SDS011;55984;48.790;8.990;2022-11-15T16:13:55;4.97;;;3.27;;
68944;SDS011;55984;48.790;8.990;2022-11-15T16:16:21;9.77;;;3.30;;
68944;SDS011;55984;48.790;8.990;2022-11-15T16:18:47;6.47;;;3.23;;
68944;SDS011;55984;48.790;8.990;2022-11-15T16:21:12;7.13;;;3.27;;
68944;SDS011;55984;48.790;8.990;2022-11-15T16:23:38;6.90;;;3.00;;
68944;SDS011;55984;48.790;8.990;2022-11-15T16:26:09;6.23;;;2.60;;
68944;SDS011;55984;48.790;8.990;2022-11-15T16:28:52;14.00;;;4.07;;
68944;SDS011;55984;48.790;8.990;2022-11-15T16:31:18;10.17;;;3.73;;
68944;SDS011;55984;48.790;8.990;2022-11-15T16:33:46;10.10;;;3.80;;
68944;SDS011;55984;48.790;8.990;2022-11-15T16:38:44;11.50;;;4.17;;
68944;SDS011;55984;48.790;8.990;2022-11-15T16:41:10;11.10;;;4.97;;
68944;SDS011;55984;48.790;8.990;2022-11-15T16:43:35;11.83;;;5.10;;
68944;SDS011;55984;48.790;8.990;2022-11-15T16:46:06;9.60;;;5.43;;
68944;SDS011;55984;48.790;8.990;2022-11-15T16:48:39;12.03;;;6.20;;
68944;SDS011;55984;48.790;8.990;2022-11-15T16:51:05;11.67;;;6.00;;
68944;SDS011;55984;48.790;8.990;2022-11-15T16:53:30;10.43;;;5.13;;
68944;SDS011;55984;48.790;8.990;2022-11-15T16:55:56;12.30;;;5.60;;
68944;SDS011;55984;48.790;8.990;2022-11-15T16:58:23;12.20;;;4.73;;
68944;SDS011;55984;48.790;8.990;2022-11-15T17:00:50;12.13;;;4.73;;
68944;SDS011;55984;48.790;8.990;2022-11-15T17:03:20;11.00;;;4.83;;
68944;SDS011;55984;48.790;8.990;2022-11-15T17:05:46;8.77;;;4.90;;
68944;SDS011;55984;48.790;8.990;2022-11-15T17:08:12;8.60;;;4.43;;
68944;SDS011;55984;48.790;8.990;2022-11-15T17:10:42;7.47;;;4.57;;
68944;SDS011;55984;48.790;8.990;2022-11-15T17:13:11;9.90;;;5.20;;
68944;SDS011;55984;48.790;8.990;2022-11-15T17:15:37;11.90;;;5.10;;
68944;SDS011;55984;48.790;8.990;2022-11-15T17:18:03;9.67;;;5.40;;
68944;SDS011;55984;48.790;8.990;2022-11-15T17:20:28;13.47;;;5.40;;
68944;SDS011;55984;48.790;8.990;2022-11-15T17:22:54;11.30;;;5.40;;
68944;SDS011;55984;48.790;8.990;2022-11-15T17:25:20;9.80;;;4.67;;
68944;SDS011;55984;48.790;8.990;2022-11-15T17:27:45;6.00;;;4.17;;
68944;SDS011;55984;48.790;8.990;2022-11-15T17:32:48;7.20;;;3.30;;
68944;SDS011;55984;48.790;8.990;2022-11-15T17:35:14;6.53;;;3.47;;
68944;SDS011;55984;48.790;8.990;2022-11-15T17:37:39;8.80;;;3.63;;
68944;SDS011;55984;48.790;8.990;2022-11-15T17:40:05;10.00;;;5.00;;
68944;SDS011;55984;48.790;8.990;2022-11-15T17:45:03;10.37;;;4.03;;
68944;SDS011;55984;48.790;8.990;2022-11-15T17:47:29;9.00;;;3.77;;
68944;SDS011;55984;48.790;8.990;2022-11-15T17:49:54;5.87;;;3.73;;
68944;SDS011;55984;48.790;8.990;2022-11-15T17:52:27;7.93;;;4.03;;